Darstellungsparameter: Aktuell verwendete Einstellungen:
Skalierung der Graphiken ... ?
xyx+y,   Skalierungsfaktor:      Skalierung: Modus: x, Faktor: 1
Darstellungszeitraum ... ?
Vom - - bis: - -   Zeitraum: 17.08.2009 - 17.08.2009
Min/Max/Avg-Anzeige ... ?
Zeige MMA aktuell
Zeige MMA Monat
Zeige MMA alles
Zeige --A aktuell
Zeige --A Monat
Zeige --A alles
Keine MMA-Anzeige
MMA:
Keine MMA-Graphiken
MMA-Basis: 17.08.2009 - 17.08.2009
Quicknavigation für Darstellung... ?
Tage:      1T, 2T, 3T, 5T -1T -2T -3T -5T +1T +2T +3T +5T
Wochen: 1W, 2W, 3W -1W -2W -3W +1W +2W +3W
Monate: 1M, 3M, 6M -1M -3M -6M +1M +3M +6M
Jahre:    1J, 3J, 5J, 10J -1J -3J -5J -10J +1J +3J +5J +10J
Nutze für die Darstellung ... ?
Originaldaten oder Mittelwerte auf ...
Stundenbasis Tagesbasis Wochenbasis
Monatsbasis Jahresbasis      Datenbasis: Original-Daten
Darstellen als:
Statistik (Auto) Statistik J:M      Darstellung:
Zur Graphik,    zurück zur Übersicht aller Sensoren.
 
Tabellarische Datenbersicht: ?
 
Sensor: Nr:Datum:Temp:Feuchte:Taupunkt:
Aussen-T/F 1 17-08-2009 00:07:24 22.9 C 59 % 14.47 C
2 17-08-2009 00:19:24 22.8 C 59 % 14.37 C
3 17-08-2009 00:31:24 22.7 C 59 % 14.28 C
4 17-08-2009 00:43:24 22.3 C 60 % 14.16 C
5 17-08-2009 00:55:24 22 C 61 % 14.14 C
6 17-08-2009 01:07:24 21.8 C 61 % 13.95 C
7 17-08-2009 01:19:24 21.6 C 62 % 14.01 C
8 17-08-2009 01:31:24 21.6 C 61 % 13.76 C
9 17-08-2009 01:43:24 21.3 C 62 % 13.73 C
10 17-08-2009 01:55:24 21.2 C 62 % 13.63 C
11 17-08-2009 02:07:24 21 C 64 % 13.93 C
12 17-08-2009 02:19:24 20.8 C 65 % 13.98 C
13 17-08-2009 02:31:24 20.7 C 66 % 14.12 C
14 17-08-2009 02:43:24 20.6 C 66 % 14.03 C
15 17-08-2009 02:55:24 20.2 C 68 % 14.11 C
16 17-08-2009 03:07:24 20 C 68 % 13.92 C
17 17-08-2009 03:19:24 19.7 C 70 % 14.08 C
18 17-08-2009 03:31:25 19.6 C 72 % 14.42 C
19 17-08-2009 03:43:25 19.4 C 73 % 14.44 C
20 17-08-2009 03:55:25 19.3 C 72 % 14.13 C
21 17-08-2009 04:07:25 19.2 C 73 % 14.25 C
22 17-08-2009 04:19:25 18.9 C 75 % 14.37 C
23 17-08-2009 04:31:25 18.8 C 76 % 14.48 C
24 17-08-2009 04:43:25 18.7 C 75 % 14.18 C
25 17-08-2009 04:55:25 18.6 C 76 % 14.29 C
Sensor: Nr:Datum:Temp:Feuchte:Taupunkt:
Aussen-T/F 26 17-08-2009 05:07:25 18.4 C 77 % 14.3 C
27 17-08-2009 05:19:25 18.3 C 77 % 14.2 C
28 17-08-2009 05:31:25 18.1 C 78 % 14.21 C
29 17-08-2009 05:43:25 18 C 78 % 14.11 C
30 17-08-2009 05:55:25 18 C 78 % 14.11 C
31 17-08-2009 06:07:25 18 C 78 % 14.11 C
32 17-08-2009 06:19:25 17.8 C 80 % 14.31 C
33 17-08-2009 06:31:25 17.7 C 80 % 14.21 C
34 17-08-2009 06:43:25 17.8 C 80 % 14.31 C
35 17-08-2009 06:55:23 18 C 79 % 14.31 C
36 17-08-2009 07:07:23 18.2 C 78 % 14.3 C
37 17-08-2009 07:19:23 18.3 C 78 % 14.4 C
38 17-08-2009 07:31:23 18.4 C 77 % 14.3 C
39 17-08-2009 07:43:23 18.3 C 77 % 14.2 C
40 17-08-2009 07:55:23 18.7 C 77 % 14.59 C
41 17-08-2009 08:07:22 18.8 C 75 % 14.28 C
42 17-08-2009 08:19:02 18.8 C 75 % 14.28 C
43 17-08-2009 08:31:01 19.1 C 74 % 14.36 C
44 17-08-2009 08:43:01 19.5 C 73 % 14.53 C
45 17-08-2009 08:55:02 19.7 C 71 % 14.3 C
46 17-08-2009 09:07:02 19.9 C 71 % 14.49 C
47 17-08-2009 09:19:01 20.5 C 68 % 14.39 C
48 17-08-2009 09:31:01 21.1 C 65 % 14.27 C
49 17-08-2009 09:43:02 21.4 C 64 % 14.31 C
50 17-08-2009 09:55:01 21.2 C 64 % 14.12 C
Sensor: Nr:Datum:Temp:Feuchte:Taupunkt:
Aussen-T/F 51 17-08-2009 10:07:01 21.6 C 64 % 14.5 C
52 17-08-2009 10:19:01 22.2 C 62 % 14.58 C
53 17-08-2009 10:31:00 23 C 58 % 14.29 C
54 17-08-2009 10:43:00 23.5 C 58 % 14.76 C
55 17-08-2009 10:55:01 24.1 C 54 % 14.21 C
56 17-08-2009 11:07:00 25 C 51 % 14.16 C
57 17-08-2009 11:19:00 25.5 C 49 % 14 C
58 17-08-2009 11:30:59 26.1 C 48 % 14.23 C
59 17-08-2009 11:42:59 27 C 45 % 14.06 C
60 17-08-2009 11:55:00 27.2 C 44 % 13.89 C
61 17-08-2009 12:07:59 27.5 C 44 % 14.16 C
62 17-08-2009 12:19:59 27.9 C 40 % 13.05 C
63 17-08-2009 12:31:00 28.1 C 40 % 13.23 C
64 17-08-2009 12:43:00 28.5 C 38 % 12.8 C
65 17-08-2009 12:55:59 29.1 C 38 % 13.34 C
66 17-08-2009 13:07:59 29.7 C 35 % 12.61 C
67 17-08-2009 13:19:59 29.4 C 34 % 11.9 C
68 17-08-2009 13:31:59 30 C 34 % 12.43 C
69 17-08-2009 13:43:59 29.9 C 33 % 11.89 C
70 17-08-2009 13:55:58 29.7 C 35 % 12.61 C
71 17-08-2009 14:07:59 30.3 C 34 % 12.69 C
72 17-08-2009 14:19:59 30.3 C 32 % 11.77 C
73 17-08-2009 14:31:58 29.4 C 34 % 11.9 C
74 17-08-2009 14:43:58 30.1 C 31 % 11.12 C
75 17-08-2009 14:55:58 30.6 C 31 % 11.55 C
Sensor: Nr:Datum:Temp:Feuchte:Taupunkt:
Aussen-T/F 76 17-08-2009 15:07:58 30.9 C 30 % 11.31 C
77 17-08-2009 15:19:58 29.8 C 34 % 12.25 C
78 17-08-2009 15:31:57 28.9 C 36 % 12.33 C
79 17-08-2009 15:43:57 30 C 32 % 11.51 C
80 17-08-2009 15:55:58 29.5 C 35 % 12.43 C
81 17-08-2009 16:07:57 29.5 C 36 % 12.86 C
82 17-08-2009 16:19:57 29.5 C 34 % 11.99 C
83 17-08-2009 16:31:57 29.1 C 35 % 12.08 C
84 17-08-2009 16:43:57 30.8 C 31 % 11.72 C
85 17-08-2009 16:55:57 30.6 C 30 % 11.05 C
86 17-08-2009 17:07:57 29.3 C 33 % 11.37 C
87 17-08-2009 17:19:56 29.4 C 34 % 11.9 C
88 17-08-2009 17:31:57 28.7 C 34 % 11.29 C
89 17-08-2009 17:43:57 29 C 33 % 11.1 C
90 17-08-2009 17:55:56 29.6 C 30 % 10.19 C
91 17-08-2009 18:07:56 30.3 C 28 % 9.76 C
92 17-08-2009 18:19:56 29.4 C 30 % 10.02 C
93 17-08-2009 18:31:56 28.4 C 32 % 10.12 C
94 17-08-2009 18:43:56 28.2 C 32 % 9.95 C
95 17-08-2009 18:55:56 28.1 C 31 % 9.39 C
96 17-08-2009 19:07:55 27.9 C 32 % 9.69 C
97 17-08-2009 19:19:56 27.6 C 32 % 9.43 C
98 17-08-2009 19:31:55 26 C 35 % 9.36 C
99 17-08-2009 19:43:55 26.2 C 36 % 9.96 C
100 17-08-2009 19:55:55 25.8 C 38 % 10.41 C
Sensor: Nr:Datum:Temp:Feuchte:Taupunkt:
Aussen-T/F 101 17-08-2009 20:07:55 24.6 C 41 % 10.48 C
102 17-08-2009 20:19:55 23.8 C 43 % 10.48 C
103 17-08-2009 20:31:55 23.3 C 42 % 9.68 C
104 17-08-2009 20:43:55 23.2 C 42 % 9.59 C
105 17-08-2009 20:55:55 23 C 40 % 8.68 C
106 17-08-2009 21:07:54 22.8 C 40 % 8.5 C
107 17-08-2009 21:19:54 22.3 C 41 % 8.42 C
108 17-08-2009 21:31:54 22.4 C 43 % 9.22 C
109 17-08-2009 21:43:54 22 C 43 % 8.85 C
110 17-08-2009 21:55:54 21.6 C 46 % 9.49 C
111 17-08-2009 22:08:55 21.4 C 47 % 9.63 C
112 17-08-2009 22:20:55 21.2 C 48 % 9.76 C
113 17-08-2009 22:32:55 21 C 48 % 9.58 C
114 17-08-2009 22:44:55 20.9 C 49 % 9.79 C
115 17-08-2009 22:56:55 20.8 C 50 % 10 C
116 17-08-2009 23:08:55 20.8 C 51 % 10.3 C
117 17-08-2009 23:20:55 20.8 C 51 % 10.3 C
118 17-08-2009 23:32:55 20.6 C 53 % 10.69 C
119 17-08-2009 23:44:55 20.8 C 53 % 10.88 C
120 17-08-2009 23:56:55 20.6 C 54 % 10.97 C

Legende:
   Min
   Max


Maximal/Minimal-Werte vom 17.08.2009 - 17.08.2009

Sensor Min Max Avg
Temp
(Aussen-T/F)
17.7 °C
17-08-2009  06:31:25
30.9 °C
17-08-2009  15:07:58
23.62 °C
Feuchte
(Aussen-T/F)
28 %
17-08-2009  18:07:56
80 %
17-08-2009  06:19:25
52.93 %
Taupunkt
(Aussen-T/F)
8.42 C
17-08-2009  21:19:54
14.76 C
17-08-2009  10:43:00
12.47 C

Die Daten stammen von einer Davis Vantage Pro 2 Wetter-Station und werden unter Linux mit der Software wview2wettercgi und aufbereitet. Alle Angaben erfolgen ohne Gewähr für ihre Vollständigkeit oder Richtigkeit.
Kontakt: Rainer Krienke krienke@uni-koblenz.de . Meine Webseiten an der Uni Koblenz oder privat.
Version: $Revision: 0.78 $